Pond Inlet, Nunavut

12:10 PM EDT on October 25, 2014 (GMT -0400)
Pond Inlet | Change Station
CLOSE
Current Station
Airport
Location: Pond Inlet,
Elevation: 200 ft
Nearby Weather Stations

Elev 200 ft 72.69 °N, 77.97 °W | Updated 10 minutes ago

Light Snow
Light Snow
9 °F
Feels Like -6 °F
N
10
Wind Variable Wind from South

Today is forecast to be nearly the same temperature as yesterday.

Today
High -- | Low -- °F
--% Chance of Precip.
Yesterday
High -- | Low -- °F
Precip. -- in
9:35 AM 4:14 PM
Waxing Crescent, 3% visible
Pressure 30.17 in
Visibility 9.0 miles
Clouds Overcast 2100 ft
Windchill -6 °F
Dew Point 3 °F
Humidity 79%
Rainfall 0.00 in
Snow Depth Not available.
UV 0 out of 12
Pollen Not available.
Air Quality Not available.
Flu Activity Not available.
METAR CYIO 251600Z AUTO 18009KT 9SM -SN OVC021 M13/M16 A3015 RMK SLP217

More Conditions Fewer Conditions

Pressure 30.17 in
Visibility 9.0 miles
Clouds Overcast 2100 ft
Windchill -6 °F
Dew Point 3 °F
Humidity 79%
Rainfall 0.00 in
Snow Depth Not available.
UV 0 out of 12
Pollen Not available.
Air Quality Not available.
Flu Activity Not available.
METAR CYIO 251600Z AUTO 18009KT 9SM -SN OVC021 M13/M16 A3015 RMK SLP217

More Conditions Fewer Conditions

10-Day Weather Forecast

Almanac

Astronomy

Oct. 25, 2014 Rise Set
Actual Time 9:35 AM EDT 4:14 PM EDT
Civil Twilight 8:13 AM EDT 5:36 PM EDT
Nautical Twilight 6:50 AM EDT 6:59 PM EDT
Astronomical Twilight 5:28 AM EDT 8:20 PM EDT
Moon 12:46 PM EDT 3:56 PM EDT
Length of Visible Light 9h 22m
Length of Day
6h 38m
Tomorrow will be 12m 7s shorter.
Waxing Crescent, 3% of the Moon is Illuminated
Today
Waxing Crescent
Oct 30
First Quarter
Nov 6
Full
Nov 14
Last Quarter
Nov 22
New

Today's Extremes

Country Highs Country Lows

Community

WunderPhotos

Upload Photos

1,764,887 photos uploaded!

Nearby

Snow Depth

Not available.

Earthquake Activity

City Distance Mag. Time & Date
No recent earthquake activity has been reported nearby.
Minimum magnitude displayed is 2.5.

Coastal Water Temperatures

Place Temperature
No Stations Reporting

Nearby Weather Stations